sensor_id;sensor_type;location;lat;lon;timestamp;pressure;altitude;pressure_sealevel;temperature;humidity
63691;BME280;49837;57.280;27.070;2022-09-13T00:00:48;100081.75;;;8.73;100.0
63691;BME280;49837;57.280;27.070;2022-09-13T00:01:47;100078.84;;;8.73;100.0
63691;BME280;49837;57.280;27.070;2022-09-13T00:02:47;100083.06;;;8.71;100.0
63691;BME280;49837;57.280;27.070;2022-09-13T00:03:47;100077.95;;;8.69;100.0
63691;BME280;49837;57.280;27.070;2022-09-13T00:04:48;100079.33;;;8.71;100.0
63691;BME280;49837;57.280;27.070;2022-09-13T00:05:48;100079.97;;;8.72;100.0
63691;BME280;49837;57.280;27.070;2022-09-13T00:06:49;100074.84;;;8.71;100.0
63691;BME280;49837;57.280;27.070;2022-09-13T00:07:49;100075.59;;;8.73;100.0
63691;BME280;49837;57.280;27.070;2022-09-13T00:08:50;100074.53;;;8.73;100.0
63691;BME280;49837;57.280;27.070;2022-09-13T00:09:50;100077.83;;;8.74;100.0
63691;BME280;49837;57.280;27.070;2022-09-13T00:10:50;100068.16;;;8.75;100.0
63691;BME280;49837;57.280;27.070;2022-09-13T00:11:51;100072.91;;;8.75;100.0
63691;BME280;49837;57.280;27.070;2022-09-13T00:12:51;100069.33;;;8.75;100.0
63691;BME280;49837;57.280;27.070;2022-09-13T00:13:52;100068.59;;;8.75;100.0
63691;BME280;49837;57.280;27.070;2022-09-13T00:14:52;100066.0;;;8.75;100.0
63691;BME280;49837;57.280;27.070;2022-09-13T00:15:53;100069.23;;;8.76;100.0
63691;BME280;49837;57.280;27.070;2022-09-13T00:16:53;100063.55;;;8.77;100.0
63691;BME280;49837;57.280;27.070;2022-09-13T00:17:53;100070.68;;;8.74;100.0
63691;BME280;49837;57.280;27.070;2022-09-13T00:18:54;100070.32;;;8.75;100.0
63691;BME280;49837;57.280;27.070;2022-09-13T00:19:54;100072.94;;;8.73;100.0
63691;BME280;49837;57.280;27.070;2022-09-13T00:21:07;100070.68;;;8.74;100.0
63691;BME280;49837;57.280;27.070;2022-09-13T00:21:55;100072.52;;;8.74;100.0
63691;BME280;49837;57.280;27.070;2022-09-13T00:22:56;100068.61;;;8.74;100.0
63691;BME280;49837;57.280;27.070;2022-09-13T00:23:56;100067.44;;;8.73;100.0
63691;BME280;49837;57.280;27.070;2022-09-13T00:24:56;100067.38;;;8.73;100.0
63691;BME280;49837;57.280;27.070;2022-09-13T00:26:58;100069.8;;;8.76;100.0
63691;BME280;49837;57.280;27.070;2022-09-13T00:27:58;100068.28;;;8.77;100.0
63691;BME280;49837;57.280;27.070;2022-09-13T00:28:58;100067.99;;;8.78;100.0
63691;BME280;49837;57.280;27.070;2022-09-13T00:29:59;100069.34;;;8.77;100.0
63691;BME280;49837;57.280;27.070;2022-09-13T00:31:01;100070.44;;;8.77;100.0
63691;BME280;49837;57.280;27.070;2022-09-13T00:32:00;100074.29;;;8.8;100.0
63691;BME280;49837;57.280;27.070;2022-09-13T00:33:00;100071.8;;;8.79;100.0
63691;BME280;49837;57.280;27.070;2022-09-13T00:34:00;100073.27;;;8.81;100.0
63691;BME280;49837;57.280;27.070;2022-09-13T00:35:02;100070.56;;;8.8;100.0
63691;BME280;49837;57.280;27.070;2022-09-13T00:36:08;100073.55;;;8.8;100.0
63691;BME280;49837;57.280;27.070;2022-09-13T00:37:06;100073.31;;;8.79;100.0
63691;BME280;49837;57.280;27.070;2022-09-13T00:38:07;100070.89;;;8.79;100.0
63691;BME280;49837;57.280;27.070;2022-09-13T00:39:08;100065.52;;;8.78;100.0
63691;BME280;49837;57.280;27.070;2022-09-13T00:40:09;100069.46;;;8.79;100.0
63691;BME280;49837;57.280;27.070;2022-09-13T00:41:12;100071.17;;;8.78;100.0
63691;BME280;49837;57.280;27.070;2022-09-13T00:42:11;100066.64;;;8.76;100.0
63691;BME280;49837;57.280;27.070;2022-09-13T00:45:20;100073.1;;;8.77;100.0
63691;BME280;49837;57.280;27.070;2022-09-13T00:48:26;100065.16;;;8.79;100.0
63691;BME280;49837;57.280;27.070;2022-09-13T00:51:35;100064.27;;;8.78;100.0
63691;BME280;49837;57.280;27.070;2022-09-13T00:52:36;100068.06;;;8.79;100.0
63691;BME280;49837;57.280;27.070;2022-09-13T00:53:39;100066.86;;;8.78;100.0
63691;BME280;49837;57.280;27.070;2022-09-13T00:54:42;100068.61;;;8.77;100.0
63691;BME280;49837;57.280;27.070;2022-09-13T00:56:51;100067.02;;;8.77;100.0
63691;BME280;49837;57.280;27.070;2022-09-13T00:57:49;100067.16;;;8.76;100.0
63691;BME280;49837;57.280;27.070;2022-09-13T01:00:54;100063.69;;;8.77;100.0
63691;BME280;49837;57.280;27.070;2022-09-13T01:01:55;100064.38;;;8.8;100.0
63691;BME280;49837;57.280;27.070;2022-09-13T01:02:57;100064.67;;;8.79;100.0
63691;BME280;49837;57.280;27.070;2022-09-13T01:03:56;100061.98;;;8.79;100.0
63691;BME280;49837;57.280;27.070;2022-09-13T01:04:57;100058.23;;;8.8;100.0
63691;BME280;49837;57.280;27.070;2022-09-13T01:06:00;100062.62;;;8.81;100.0
63691;BME280;49837;57.280;27.070;2022-09-13T01:07:03;100065.69;;;8.82;100.0
63691;BME280;49837;57.280;27.070;2022-09-13T01:08:03;100064.02;;;8.81;100.0
63691;BME280;49837;57.280;27.070;2022-09-13T01:09:03;100063.62;;;8.81;100.0
63691;BME280;49837;57.280;27.070;2022-09-13T01:10:04;100060.66;;;8.8;100.0
63691;BME280;49837;57.280;27.070;2022-09-13T01:11:05;100060.5;;;8.82;100.0
63691;BME280;49837;57.280;27.070;2022-09-13T01:14:12;100056.78;;;8.78;100.0
63691;BME280;49837;57.280;27.070;2022-09-13T01:15:12;100053.5;;;8.77;100.0
63691;BME280;49837;57.280;27.070;2022-09-13T01:16:13;100050.22;;;8.74;100.0
63691;BME280;49837;57.280;27.070;2022-09-13T01:17:13;100051.48;;;8.73;100.0
63691;BME280;49837;57.280;27.070;2022-09-13T01:18:14;100053.78;;;8.74;100.0
63691;BME280;49837;57.280;27.070;2022-09-13T01:19:14;100054.33;;;8.73;100.0
63691;BME280;49837;57.280;27.070;2022-09-13T01:20:14;100055.88;;;8.74;100.0
63691;BME280;49837;57.280;27.070;2022-09-13T01:39:16;100050.86;;;8.75;100.0
63691;BME280;49837;57.280;27.070;2022-09-13T01:50:42;100049.53;;;8.75;100.0
63691;BME280;49837;57.280;27.070;2022-09-13T01:58:22;100047.75;;;8.73;100.0
63691;BME280;49837;57.280;27.070;2022-09-13T02:00:15;100047.26;;;8.73;100.0
63691;BME280;49837;57.280;27.070;2022-09-13T02:03:18;100044.85;;;8.72;100.0
63691;BME280;49837;57.280;27.070;2022-09-13T02:04:25;100040.67;;;8.7;100.0
63691;BME280;49837;57.280;27.070;2022-09-13T02:06:26;100038.64;;;8.69;100.0
63691;BME280;49837;57.280;27.070;2022-09-13T02:07:33;100036.85;;;8.7;100.0
63691;BME280;49837;57.280;27.070;2022-09-13T02:08:34;100036.49;;;8.71;100.0
63691;BME280;49837;57.280;27.070;2022-09-13T02:09:34;100029.53;;;8.7;100.0
63691;BME280;49837;57.280;27.070;2022-09-13T02:10:40;100038.77;;;8.66;100.0
63691;BME280;49837;57.280;27.070;2022-09-13T02:11:35;100038.06;;;8.65;100.0
63691;BME280;49837;57.280;27.070;2022-09-13T02:12:35;100033.74;;;8.65;100.0
63691;BME280;49837;57.280;27.070;2022-09-13T02:13:39;100032.58;;;8.64;100.0
63691;BME280;49837;57.280;27.070;2022-09-13T02:14:39;100032.31;;;8.65;100.0
63691;BME280;49837;57.280;27.070;2022-09-13T02:15:44;100031.47;;;8.63;100.0
63691;BME280;49837;57.280;27.070;2022-09-13T02:17:51;100027.12;;;8.64;100.0
63691;BME280;49837;57.280;27.070;2022-09-13T02:18:56;100024.15;;;8.63;100.0
63691;BME280;49837;57.280;27.070;2022-09-13T02:19:58;100023.03;;;8.63;100.0
63691;BME280;49837;57.280;27.070;2022-09-13T02:21:01;100021.48;;;8.63;100.0
63691;BME280;49837;57.280;27.070;2022-09-13T02:22:02;100022.25;;;8.62;100.0
63691;BME280;49837;57.280;27.070;2022-09-13T02:23:06;100020.73;;;8.59;100.0
63691;BME280;49837;57.280;27.070;2022-09-13T02:24:07;100021.51;;;8.61;100.0
63691;BME280;49837;57.280;27.070;2022-09-13T02:25:09;100023.17;;;8.58;100.0
63691;BME280;49837;57.280;27.070;2022-09-13T02:26:09;100024.27;;;8.58;100.0
63691;BME280;49837;57.280;27.070;2022-09-13T02:27:11;100024.25;;;8.59;100.0
63691;BME280;49837;57.280;27.070;2022-09-13T02:28:13;100026.73;;;8.59;100.0
63691;BME280;49837;57.280;27.070;2022-09-13T02:29:15;100024.8;;;8.6;100.0
63691;BME280;49837;57.280;27.070;2022-09-13T02:30:15;100023.34;;;8.61;100.0
63691;BME280;49837;57.280;27.070;2022-09-13T02:31:18;100023.05;;;8.63;100.0
63691;BME280;49837;57.280;27.070;2022-09-13T02:33:25;100021.63;;;8.6;100.0
63691;BME280;49837;57.280;27.070;2022-09-13T02:34:33;100017.8;;;8.6;100.0
63691;BME280;49837;57.280;27.070;2022-09-13T02:36:35;100017.78;;;8.61;100.0
63691;BME280;49837;57.280;27.070;2022-09-13T02:37:37;100015.34;;;8.63;100.0
63691;BME280;49837;57.280;27.070;2022-09-13T02:39:45;100018.49;;;8.62;100.0
63691;BME280;49837;57.280;27.070;2022-09-13T02:40:42;100023.62;;;8.64;100.0
63691;BME280;49837;57.280;27.070;2022-09-13T02:44:00;100020.34;;;8.65;100.0
63691;BME280;49837;57.280;27.070;2022-09-13T02:44:56;100024.01;;;8.61;100.0
63691;BME280;49837;57.280;27.070;2022-09-13T02:48:05;100020.61;;;8.65;100.0
63691;BME280;49837;57.280;27.070;2022-09-13T02:55:20;100023.05;;;8.66;100.0
63691;BME280;49837;57.280;27.070;2022-09-13T02:57:52;100018.9;;;8.67;100.0
63691;BME280;49837;57.280;27.070;2022-09-13T02:59:24;100021.44;;;8.68;100.0
63691;BME280;49837;57.280;27.070;2022-09-13T03:00:23;100021.81;;;8.66;100.0
63691;BME280;49837;57.280;27.070;2022-09-13T03:01:24;100019.61;;;8.64;100.0
63691;BME280;49837;57.280;27.070;2022-09-13T03:02:28;100023.33;;;8.65;100.0
63691;BME280;49837;57.280;27.070;2022-09-13T03:03:28;100019.23;;;8.67;100.0
63691;BME280;49837;57.280;27.070;2022-09-13T03:04:28;100018.62;;;8.67;100.0
63691;BME280;49837;57.280;27.070;2022-09-13T03:05:29;100013.78;;;8.68;100.0
63691;BME280;49837;57.280;27.070;2022-09-13T03:06:29;100011.72;;;8.68;100.0
63691;BME280;49837;57.280;27.070;2022-09-13T03:07:29;100010.39;;;8.68;100.0
63691;BME280;49837;57.280;27.070;2022-09-13T03:08:30;100009.17;;;8.69;100.0
63691;BME280;49837;57.280;27.070;2022-09-13T03:09:31;100010.01;;;8.69;100.0
63691;BME280;49837;57.280;27.070;2022-09-13T03:20:13;100012.24;;;8.7;100.0
63691;BME280;49837;57.280;27.070;2022-09-13T03:27:30;100014.36;;;8.72;100.0
63691;BME280;49837;57.280;27.070;2022-09-13T03:30:34;100013.28;;;8.75;100.0
63691;BME280;49837;57.280;27.070;2022-09-13T03:32:50;100018.44;;;8.75;100.0
63691;BME280;49837;57.280;27.070;2022-09-13T03:36:57;100016.2;;;8.74;100.0
63691;BME280;49837;57.280;27.070;2022-09-13T03:39:09;100017.77;;;8.75;100.0
63691;BME280;49837;57.280;27.070;2022-09-13T03:42:07;100010.59;;;8.79;100.0
63691;BME280;49837;57.280;27.070;2022-09-13T03:44:07;100012.33;;;8.76;100.0
63691;BME280;49837;57.280;27.070;2022-09-13T03:45:08;100010.69;;;8.75;100.0
63691;BME280;49837;57.280;27.070;2022-09-13T03:47:11;100010.31;;;8.74;100.0
63691;BME280;49837;57.280;27.070;2022-09-13T03:48:11;100008.91;;;8.77;100.0
63691;BME280;49837;57.280;27.070;2022-09-13T03:49:15;100005.84;;;8.77;100.0
63691;BME280;49837;57.280;27.070;2022-09-13T03:50:20;100004.47;;;8.75;100.0
63691;BME280;49837;57.280;27.070;2022-09-13T03:51:18;100001.78;;;8.76;100.0
63691;BME280;49837;57.280;27.070;2022-09-13T03:52:19;100002.19;;;8.73;100.0
63691;BME280;49837;57.280;27.070;2022-09-13T03:53:22;100002.76;;;8.73;100.0
63691;BME280;49837;57.280;27.070;2022-09-13T03:54:26;99999.23;;;8.74;100.0
63691;BME280;49837;57.280;27.070;2022-09-13T03:55:26;100000.47;;;8.78;100.0
63691;BME280;49837;57.280;27.070;2022-09-13T03:56:25;100000.66;;;8.77;100.0
63691;BME280;49837;57.280;27.070;2022-09-13T03:57:26;100001.81;;;8.75;100.0
63691;BME280;49837;57.280;27.070;2022-09-13T03:58:26;100001.83;;;8.74;100.0
63691;BME280;49837;57.280;27.070;2022-09-13T03:59:27;99998.34;;;8.74;100.0
63691;BME280;49837;57.280;27.070;2022-09-13T04:00:27;99994.94;;;8.77;100.0
63691;BME280;49837;57.280;27.070;2022-09-13T04:01:28;99998.34;;;8.78;100.0
63691;BME280;49837;57.280;27.070;2022-09-13T04:02:28;99998.43;;;8.77;100.0
63691;BME280;49837;57.280;27.070;2022-09-13T04:03:28;99995.0;;;8.77;100.0
63691;BME280;49837;57.280;27.070;2022-09-13T04:04:29;99996.31;;;8.75;100.0
63691;BME280;49837;57.280;27.070;2022-09-13T04:05:29;99995.77;;;8.77;100.0
63691;BME280;49837;57.280;27.070;2022-09-13T04:06:30;99992.03;;;8.8;100.0
63691;BME280;49837;57.280;27.070;2022-09-13T04:07:30;99995.43;;;8.81;100.0
63691;BME280;49837;57.280;27.070;2022-09-13T04:08:33;99990.58;;;8.81;100.0
63691;BME280;49837;57.280;27.070;2022-09-13T04:09:31;99996.81;;;8.83;100.0
63691;BME280;49837;57.280;27.070;2022-09-13T04:10:32;99994.02;;;8.84;100.0
63691;BME280;49837;57.280;27.070;2022-09-13T04:11:32;99998.25;;;8.84;100.0
63691;BME280;49837;57.280;27.070;2022-09-13T04:12:32;99992.95;;;8.83;100.0
63691;BME280;49837;57.280;27.070;2022-09-13T04:13:33;99994.55;;;8.83;100.0
63691;BME280;49837;57.280;27.070;2022-09-13T04:14:33;99996.8;;;8.86;100.0
63691;BME280;49837;57.280;27.070;2022-09-13T04:15:33;99995.98;;;8.88;100.0
63691;BME280;49837;57.280;27.070;2022-09-13T04:16:34;99989.72;;;8.9;100.0
63691;BME280;49837;57.280;27.070;2022-09-13T04:17:34;99987.55;;;8.9;100.0
63691;BME280;49837;57.280;27.070;2022-09-13T04:18:35;99988.12;;;8.87;100.0
63691;BME280;49837;57.280;27.070;2022-09-13T04:19:36;99986.56;;;8.86;100.0
63691;BME280;49837;57.280;27.070;2022-09-13T04:20:35;99981.76;;;8.89;100.0
63691;BME280;49837;57.280;27.070;2022-09-13T04:21:36;99988.05;;;8.9;100.0
63691;BME280;49837;57.280;27.070;2022-09-13T04:22:36;99983.44;;;8.91;100.0
63691;BME280;49837;57.280;27.070;2022-09-13T04:23:37;99987.45;;;8.9;100.0
63691;BME280;49837;57.280;27.070;2022-09-13T04:24:37;99988.75;;;8.91;100.0
63691;BME280;49837;57.280;27.070;2022-09-13T04:25:38;99989.83;;;8.92;100.0
63691;BME280;49837;57.280;27.070;2022-09-13T04:26:38;99990.35;;;8.91;100.0
63691;BME280;49837;57.280;27.070;2022-09-13T04:27:38;99988.81;;;8.89;100.0
63691;BME280;49837;57.280;27.070;2022-09-13T04:28:39;99993.8;;;8.89;100.0
63691;BME280;49837;57.280;27.070;2022-09-13T04:29:39;99990.0;;;8.88;100.0
63691;BME280;49837;57.280;27.070;2022-09-13T04:30:45;99990.67;;;8.85;100.0
63691;BME280;49837;57.280;27.070;2022-09-13T04:31:47;99983.25;;;8.89;100.0
63691;BME280;49837;57.280;27.070;2022-09-13T04:32:45;99986.91;;;8.89;100.0
63691;BME280;49837;57.280;27.070;2022-09-13T04:33:45;99981.75;;;8.83;100.0
63691;BME280;49837;57.280;27.070;2022-09-13T04:34:46;99980.45;;;8.84;100.0
63691;BME280;49837;57.280;27.070;2022-09-13T04:35:46;99976.15;;;8.87;100.0
63691;BME280;49837;57.280;27.070;2022-09-13T04:36:47;99973.63;;;8.88;100.0
63691;BME280;49837;57.280;27.070;2022-09-13T04:37:47;99976.25;;;8.83;100.0
63691;BME280;49837;57.280;27.070;2022-09-13T04:38:48;99973.04;;;8.84;100.0
63691;BME280;49837;57.280;27.070;2022-09-13T04:39:48;99974.86;;;8.88;100.0
63691;BME280;49837;57.280;27.070;2022-09-13T04:40:53;99971.89;;;8.91;100.0
63691;BME280;49837;57.280;27.070;2022-09-13T04:41:51;99972.2;;;8.92;100.0
63691;BME280;49837;57.280;27.070;2022-09-13T04:42:51;99970.06;;;8.91;100.0
63691;BME280;49837;57.280;27.070;2022-09-13T04:43:51;99970.53;;;8.92;100.0
63691;BME280;49837;57.280;27.070;2022-09-13T04:44:52;99971.79;;;8.91;100.0
63691;BME280;49837;57.280;27.070;2022-09-13T04:45:52;99970.84;;;8.93;100.0
63691;BME280;49837;57.280;27.070;2022-09-13T04:46:53;99971.11;;;8.98;100.0
63691;BME280;49837;57.280;27.070;2022-09-13T04:47:53;99977.58;;;9.02;100.0
63691;BME280;49837;57.280;27.070;2022-09-13T04:48:54;99971.16;;;9.0;100.0
63691;BME280;49837;57.280;27.070;2022-09-13T04:49:54;99970.73;;;8.96;100.0
63691;BME280;49837;57.280;27.070;2022-09-13T04:51:03;99970.62;;;8.94;100.0
63691;BME280;49837;57.280;27.070;2022-09-13T04:51:56;99973.38;;;8.95;100.0
63691;BME280;49837;57.280;27.070;2022-09-13T04:52:56;99971.66;;;8.97;100.0
63691;BME280;49837;57.280;27.070;2022-09-13T04:53:57;99968.87;;;9.02;100.0
63691;BME280;49837;57.280;27.070;2022-09-13T04:54:57;99966.79;;;9.04;100.0
63691;BME280;49837;57.280;27.070;2022-09-13T04:56:01;99966.95;;;9.08;100.0
63691;BME280;49837;57.280;27.070;2022-09-13T04:56:59;99967.06;;;9.1;100.0
63691;BME280;49837;57.280;27.070;2022-09-13T04:57:59;99968.41;;;9.09;100.0
63691;BME280;49837;57.280;27.070;2022-09-13T04:59:00;99962.67;;;9.12;100.0
63691;BME280;49837;57.280;27.070;2022-09-13T05:00:01;99964.41;;;9.13;100.0
63691;BME280;49837;57.280;27.070;2022-09-13T05:01:05;99965.19;;;9.14;100.0
63691;BME280;49837;57.280;27.070;2022-09-13T05:02:03;99965.77;;;9.18;100.0
63691;BME280;49837;57.280;27.070;2022-09-13T05:03:03;99967.28;;;9.2;100.0
63691;BME280;49837;57.280;27.070;2022-09-13T05:04:05;99962.95;;;9.24;100.0
63691;BME280;49837;57.280;27.070;2022-09-13T05:05:04;99967.49;;;9.22;100.0
63691;BME280;49837;57.280;27.070;2022-09-13T05:06:09;99960.43;;;9.15;100.0
63691;BME280;49837;57.280;27.070;2022-09-13T05:07:07;99965.11;;;9.08;100.0
63691;BME280;49837;57.280;27.070;2022-09-13T05:08:09;99965.75;;;9.09;100.0
63691;BME280;49837;57.280;27.070;2022-09-13T05:09:12;99962.66;;;9.15;100.0
63691;BME280;49837;57.280;27.070;2022-09-13T05:10:10;99960.34;;;9.18;100.0
63691;BME280;49837;57.280;27.070;2022-09-13T05:11:13;99958.44;;;9.21;100.0
63691;BME280;49837;57.280;27.070;2022-09-13T05:12:14;99955.62;;;9.24;100.0
63691;BME280;49837;57.280;27.070;2022-09-13T05:13:14;99955.5;;;9.32;100.0
63691;BME280;49837;57.280;27.070;2022-09-13T05:14:15;99953.28;;;9.27;100.0
63691;BME280;49837;57.280;27.070;2022-09-13T05:15:15;99953.05;;;9.29;100.0
63691;BME280;49837;57.280;27.070;2022-09-13T05:16:16;99953.06;;;9.32;100.0
63691;BME280;49837;57.280;27.070;2022-09-13T05:17:16;99952.11;;;9.27;100.0
63691;BME280;49837;57.280;27.070;2022-09-13T05:18:16;99954.2;;;9.21;100.0
63691;BME280;49837;57.280;27.070;2022-09-13T05:19:17;99953.58;;;9.28;100.0
63691;BME280;49837;57.280;27.070;2022-09-13T05:20:17;99956.5;;;9.4;100.0
63691;BME280;49837;57.280;27.070;2022-09-13T05:21:18;99953.19;;;9.5;100.0
63691;BME280;49837;57.280;27.070;2022-09-13T05:22:18;99958.42;;;9.6;100.0
63691;BME280;49837;57.280;27.070;2022-09-13T05:23:18;99955.03;;;9.62;100.0
63691;BME280;49837;57.280;27.070;2022-09-13T05:24:19;99959.06;;;9.61;100.0
63691;BME280;49837;57.280;27.070;2022-09-13T05:25:19;99954.02;;;9.48;100.0
63691;BME280;49837;57.280;27.070;2022-09-13T05:26:23;99953.7;;;9.48;100.0
63691;BME280;49837;57.280;27.070;2022-09-13T05:27:22;99955.02;;;9.51;100.0
63691;BME280;49837;57.280;27.070;2022-09-13T05:28:23;99953.91;;;9.4;100.0
63691;BME280;49837;57.280;27.070;2022-09-13T05:29:23;99953.28;;;9.36;100.0
63691;BME280;49837;57.280;27.070;2022-09-13T05:30:23;99952.42;;;9.43;100.0
63691;BME280;49837;57.280;27.070;2022-09-13T05:31:35;99957.06;;;9.38;100.0
63691;BME280;49837;57.280;27.070;2022-09-13T05:32:30;99958.05;;;9.37;100.0
63691;BME280;49837;57.280;27.070;2022-09-13T05:33:34;99954.06;;;9.44;100.0
63691;BME280;49837;57.280;27.070;2022-09-13T05:34:32;99954.98;;;9.49;100.0
63691;BME280;49837;57.280;27.070;2022-09-13T05:35:32;99955.55;;;9.56;100.0
63691;BME280;49837;57.280;27.070;2022-09-13T05:36:33;99952.5;;;9.52;100.0
63691;BME280;49837;57.280;27.070;2022-09-13T05:37:33;99951.88;;;9.48;100.0
63691;BME280;49837;57.280;27.070;2022-09-13T05:38:33;99953.13;;;9.53;100.0
63691;BME280;49837;57.280;27.070;2022-09-13T05:39:34;99946.56;;;9.59;100.0
63691;BME280;49837;57.280;27.070;2022-09-13T05:40:36;99946.98;;;9.64;100.0
63691;BME280;49837;57.280;27.070;2022-09-13T05:41:37;99945.06;;;9.67;100.0
63691;BME280;49837;57.280;27.070;2022-09-13T05:42:37;99947.62;;;9.76;100.0
63691;BME280;49837;57.280;27.070;2022-09-13T05:43:37;99947.26;;;9.77;100.0
63691;BME280;49837;57.280;27.070;2022-09-13T05:44:38;99943.8;;;9.76;100.0
63691;BME280;49837;57.280;27.070;2022-09-13T05:45:39;99947.43;;;9.69;100.0
63691;BME280;49837;57.280;27.070;2022-09-13T05:46:39;99945.23;;;9.69;100.0
63691;BME280;49837;57.280;27.070;2022-09-13T05:47:40;99945.91;;;9.72;100.0
63691;BME280;49837;57.280;27.070;2022-09-13T05:48:40;99943.02;;;9.74;100.0
63691;BME280;49837;57.280;27.070;2022-09-13T05:49:40;99943.3;;;9.71;100.0
63691;BME280;49837;57.280;27.070;2022-09-13T05:50:43;99948.03;;;9.7;99.9
63691;BME280;49837;57.280;27.070;2022-09-13T05:51:44;99946.2;;;9.6;99.91
63691;BME280;49837;57.280;27.070;2022-09-13T05:52:51;99942.27;;;9.51;100.0
63691;BME280;49837;57.280;27.070;2022-09-13T05:53:50;99946.68;;;9.54;100.0
63691;BME280;49837;57.280;27.070;2022-09-13T05:54:49;99942.55;;;9.65;100.0
63691;BME280;49837;57.280;27.070;2022-09-13T05:55:50;99946.41;;;9.72;100.0
63691;BME280;49837;57.280;27.070;2022-09-13T05:56:50;99944.05;;;9.76;99.98
63691;BME280;49837;57.280;27.070;2022-09-13T05:57:51;99946.38;;;9.84;100.0
63691;BME280;49837;57.280;27.070;2022-09-13T05:58:52;99947.86;;;9.87;99.88
63691;BME280;49837;57.280;27.070;2022-09-13T05:59:52;99943.23;;;9.89;99.76
63691;BME280;49837;57.280;27.070;2022-09-13T06:00:53;99948.42;;;9.99;99.61
63691;BME280;49837;57.280;27.070;2022-09-13T06:01:53;99946.2;;;10.06;99.41
63691;BME280;49837;57.280;27.070;2022-09-13T06:02:55;99947.3;;;10.08;99.04
63691;BME280;49837;57.280;27.070;2022-09-13T06:03:56;99947.64;;;10.09;98.98
63691;BME280;49837;57.280;27.070;2022-09-13T06:04:54;99941.81;;;10.1;98.73
63691;BME280;49837;57.280;27.070;2022-09-13T06:05:55;99950.53;;;10.09;98.38
63691;BME280;49837;57.280;27.070;2022-09-13T06:06:55;99948.94;;;10.07;98.15
63691;BME280;49837;57.280;27.070;2022-09-13T06:07:55;99948.91;;;10.13;98.31
63691;BME280;49837;57.280;27.070;2022-09-13T06:08:56;99948.31;;;10.14;98.3
63691;BME280;49837;57.280;27.070;2022-09-13T06:09:56;99947.85;;;10.17;98.18
63691;BME280;49837;57.280;27.070;2022-09-13T06:10:58;99946.17;;;10.07;98.17
63691;BME280;49837;57.280;27.070;2022-09-13T06:11:57;99947.13;;;10.06;98.34
63691;BME280;49837;57.280;27.070;2022-09-13T06:12:57;99947.77;;;10.04;98.21
63691;BME280;49837;57.280;27.070;2022-09-13T06:13:58;99949.24;;;10.1;98.33
63691;BME280;49837;57.280;27.070;2022-09-13T06:14:58;99940.68;;;10.12;98.22
63691;BME280;49837;57.280;27.070;2022-09-13T06:16:00;99941.98;;;10.14;97.96
63691;BME280;49837;57.280;27.070;2022-09-13T06:16:59;99943.24;;;10.13;97.92
63691;BME280;49837;57.280;27.070;2022-09-13T06:17:59;99944.84;;;10.12;97.84
63691;BME280;49837;57.280;27.070;2022-09-13T06:19:00;99939.59;;;10.18;98.05
63691;BME280;49837;57.280;27.070;2022-09-13T06:20:00;99942.92;;;10.16;97.89
63691;BME280;49837;57.280;27.070;2022-09-13T06:21:06;99943.31;;;10.16;97.75
63691;BME280;49837;57.280;27.070;2022-09-13T06:22:04;99946.09;;;10.18;97.75
63691;BME280;49837;57.280;27.070;2022-09-13T06:23:05;99946.98;;;10.22;97.7
63691;BME280;49837;57.280;27.070;2022-09-13T06:24:05;99948.96;;;10.25;97.71
63691;BME280;49837;57.280;27.070;2022-09-13T06:25:06;99952.77;;;10.33;97.53
63691;BME280;49837;57.280;27.070;2022-09-13T06:26:08;99950.9;;;10.26;97.16
63691;BME280;49837;57.280;27.070;2022-09-13T06:27:06;99949.67;;;10.31;97.32
63691;BME280;49837;57.280;27.070;2022-09-13T06:28:07;99955.57;;;10.32;96.97
63691;BME280;49837;57.280;27.070;2022-09-13T06:29:10;99953.16;;;10.26;97.07
63691;BME280;49837;57.280;27.070;2022-09-13T06:30:08;99950.26;;;10.21;97.08
63691;BME280;49837;57.280;27.070;2022-09-13T06:31:10;99949.32;;;10.18;97.15
63691;BME280;49837;57.280;27.070;2022-09-13T06:32:08;99948.4;;;10.26;97.25
63691;BME280;49837;57.280;27.070;2022-09-13T06:33:09;99945.23;;;10.34;97.03
63691;BME280;49837;57.280;27.070;2022-09-13T06:34:10;99943.38;;;10.38;96.62
63691;BME280;49837;57.280;27.070;2022-09-13T06:35:10;99944.17;;;10.42;96.64
63691;BME280;49837;57.280;27.070;2022-09-13T06:36:12;99944.34;;;10.5;96.26
63691;BME280;49837;57.280;27.070;2022-09-13T06:37:12;99941.5;;;10.5;95.97
63691;BME280;49837;57.280;27.070;2022-09-13T06:38:12;99944.58;;;10.43;95.74
63691;BME280;49837;57.280;27.070;2022-09-13T06:39:12;99945.81;;;10.46;96.14
63691;BME280;49837;57.280;27.070;2022-09-13T06:40:13;99942.91;;;10.43;96.16
63691;BME280;49837;57.280;27.070;2022-09-13T06:41:15;99944.08;;;10.37;96.1
63691;BME280;49837;57.280;27.070;2022-09-13T06:42:13;99945.08;;;10.37;96.34
63691;BME280;49837;57.280;27.070;2022-09-13T06:43:14;99943.94;;;10.33;96.56
63691;BME280;49837;57.280;27.070;2022-09-13T06:44:14;99944.62;;;10.27;97.0
63691;BME280;49837;57.280;27.070;2022-09-13T06:45:15;99944.39;;;10.25;96.84
63691;BME280;49837;57.280;27.070;2022-09-13T06:46:16;99946.59;;;10.26;97.04
63691;BME280;49837;57.280;27.070;2022-09-13T06:47:16;99940.66;;;10.26;97.33
63691;BME280;49837;57.280;27.070;2022-09-13T06:48:16;99942.12;;;10.27;97.59
63691;BME280;49837;57.280;27.070;2022-09-13T06:49:17;99941.23;;;10.26;97.47
63691;BME280;49837;57.280;27.070;2022-09-13T06:50:17;99938.77;;;10.23;97.87
63691;BME280;49837;57.280;27.070;2022-09-13T06:51:19;99940.66;;;10.23;98.0
63691;BME280;49837;57.280;27.070;2022-09-13T06:52:18;99943.09;;;10.18;97.83
63691;BME280;49837;57.280;27.070;2022-09-13T06:53:18;99936.31;;;10.16;97.83
63691;BME280;49837;57.280;27.070;2022-09-13T06:54:19;99939.79;;;10.19;97.96
63691;BME280;49837;57.280;27.070;2022-09-13T06:55:19;99938.06;;;10.24;97.85
63691;BME280;49837;57.280;27.070;2022-09-13T06:56:22;99938.03;;;10.3;97.64